createdAt,value
2019-02-24T00:00:43.481Z,-0.82
2019-02-24T00:03:11.973Z,-0.88
2019-02-24T00:05:40.429Z,-0.93
2019-02-24T00:08:08.859Z,-0.97
2019-02-24T00:10:37.298Z,-1.05
2019-02-24T00:13:05.794Z,-1.07
2019-02-24T00:15:34.244Z,-1.06
2019-02-24T00:18:03.135Z,-1.04
2019-02-24T00:20:31.591Z,-0.99
2019-02-24T00:23:00.012Z,-0.98
2019-02-24T00:25:28.449Z,-0.93
2019-02-24T00:27:56.898Z,-0.88
2019-02-24T00:30:25.327Z,-0.85
2019-02-24T00:32:53.785Z,-0.85
2019-02-24T00:35:22.201Z,-1.02
2019-02-24T00:37:50.655Z,-1.19
2019-02-24T00:40:19.075Z,-1.41
2019-02-24T00:42:47.537Z,-1.42
2019-02-24T00:45:15.963Z,-1.47
2019-02-24T00:47:44.424Z,-1.49
2019-02-24T00:50:12.916Z,-1.42
2019-02-24T00:52:41.414Z,-1.39
2019-02-24T00:55:09.866Z,-1.37
2019-02-24T00:57:38.386Z,-1.43
2019-02-24T01:00:09.731Z,-1.50
2019-02-24T01:02:38.180Z,-1.52
2019-02-24T01:05:08.148Z,-1.43
2019-02-24T01:07:36.600Z,-1.39
2019-02-24T01:10:08.061Z,-1.35
2019-02-24T01:12:36.518Z,-1.28
2019-02-24T01:15:10.111Z,-1.37
2019-02-24T01:17:38.561Z,-1.46
2019-02-24T01:20:09.233Z,-1.62
2019-02-24T01:22:37.682Z,-1.72
2019-02-24T01:25:06.356Z,-1.65
2019-02-24T01:27:34.827Z,-1.48
2019-02-24T01:30:03.249Z,-1.45
2019-02-24T01:32:31.697Z,-1.54
2019-02-24T01:35:00.289Z,-1.57
2019-02-24T01:37:28.767Z,-1.62
2019-02-24T01:39:57.192Z,-1.77
2019-02-24T01:42:25.610Z,-1.80
2019-02-24T01:44:54.068Z,-1.79
2019-02-24T01:47:22.535Z,-1.79
2019-02-24T01:49:50.956Z,-1.76
2019-02-24T01:52:19.384Z,-1.70
2019-02-24T01:54:47.840Z,-1.75
2019-02-24T01:57:16.261Z,-1.57
2019-02-24T01:59:46.643Z,-1.65
2019-02-24T02:05:19.463Z,-1.90
2019-02-24T02:07:47.990Z,-1.96
2019-02-24T02:10:16.446Z,-1.99
2019-02-24T02:13:03.631Z,-2.02
2019-02-24T02:15:32.048Z,-2.08
2019-02-24T02:18:00.472Z,-2.10
2019-02-24T02:20:29.001Z,-2.17
2019-02-24T02:22:57.434Z,-2.29
2019-02-24T02:25:25.897Z,-2.34
2019-02-24T02:27:54.321Z,-2.37
2019-02-24T02:30:22.780Z,-2.24
2019-02-24T02:32:51.215Z,-2.22
2019-02-24T02:35:19.676Z,-2.11
2019-02-24T02:37:48.111Z,-2.08
2019-02-24T02:40:16.631Z,-2.03
2019-02-24T02:42:45.051Z,-2.00
2019-02-24T02:45:13.506Z,-1.99
2019-02-24T02:47:41.928Z,-1.99
2019-02-24T02:50:10.447Z,-2.12
2019-02-24T02:52:38.874Z,-2.30
2019-02-24T02:55:07.320Z,-2.35
2019-02-24T02:57:35.749Z,-2.42
2019-02-24T03:00:07.738Z,-2.52
2019-02-24T03:02:36.168Z,-2.57
2019-02-24T03:05:05.755Z,-2.57
2019-02-24T03:07:35.819Z,-2.55
2019-02-24T03:10:05.014Z,-2.52
2019-02-24T03:12:33.438Z,-2.50
2019-02-24T03:15:01.901Z,-2.48
2019-02-24T03:17:30.323Z,-2.43
2019-02-24T03:19:58.778Z,-2.47
2019-02-24T03:22:27.205Z,-2.49
2019-02-24T03:24:55.653Z,-2.44
2019-02-24T03:27:24.083Z,-2.48
2019-02-24T03:29:52.557Z,-2.57
2019-02-24T03:32:21.048Z,-2.73
2019-02-24T03:34:49.473Z,-2.77
2019-02-24T03:37:17.926Z,-2.80
2019-02-24T03:39:46.354Z,-2.76
2019-02-24T03:42:14.818Z,-2.74
2019-02-24T03:44:43.246Z,-2.70
2019-02-24T03:47:11.692Z,-2.68
2019-02-24T03:49:40.126Z,-2.61
2019-02-24T03:52:08.577Z,-2.50
2019-02-24T03:54:37.068Z,-2.51
2019-02-24T03:57:05.596Z,-2.47
2019-02-24T03:59:34.088Z,-2.58
2019-02-24T04:02:02.557Z,-2.69
2019-02-24T04:04:31.046Z,-2.74
2019-02-24T04:06:59.501Z,-2.80
2019-02-24T04:09:27.934Z,-2.73
2019-02-24T04:11:56.389Z,-2.65
2019-02-24T04:14:24.819Z,-2.67
2019-02-24T04:16:53.272Z,-2.71
2019-02-24T04:19:21.694Z,-2.80
2019-02-24T04:21:50.145Z,-2.94
2019-02-24T04:24:18.578Z,-2.99
2019-02-24T04:26:47.028Z,-2.96
2019-02-24T04:29:24.369Z,-2.91
2019-02-24T04:31:45.654Z,-2.82
2019-02-24T04:34:14.087Z,-2.73
2019-02-24T04:36:42.553Z,-2.64
2019-02-24T04:39:10.986Z,-2.62
2019-02-24T04:41:39.435Z,-2.59
2019-02-24T04:44:07.868Z,-2.51
2019-02-24T04:46:36.330Z,-2.50
2019-02-24T04:49:04.765Z,-2.49
2019-02-24T04:51:33.199Z,-2.56
2019-02-24T04:54:01.656Z,-2.71
2019-02-24T04:56:30.081Z,-2.82
2019-02-24T04:58:58.541Z,-2.79
2019-02-24T05:01:26.973Z,-2.78
2019-02-24T05:03:55.431Z,-2.86
2019-02-24T05:06:23.852Z,-2.93
2019-02-24T05:08:52.306Z,-2.92
2019-02-24T05:11:20.730Z,-2.91
2019-02-24T05:13:49.183Z,-2.88
2019-02-24T05:16:17.626Z,-2.88
2019-02-24T05:18:46.104Z,-2.91
2019-02-24T05:21:14.532Z,-2.91
2019-02-24T05:23:43.213Z,-2.87
2019-02-24T05:26:11.691Z,-2.81
2019-02-24T05:28:40.157Z,-2.81
2019-02-24T05:31:08.596Z,-2.84
2019-02-24T05:33:37.218Z,-2.84
2019-02-24T05:36:05.646Z,-2.85
2019-02-24T05:38:34.102Z,-2.99
2019-02-24T05:41:02.538Z,-3.05
2019-02-24T05:43:30.996Z,-3.00
2019-02-24T05:45:59.418Z,-2.90
2019-02-24T05:48:27.875Z,-2.73
2019-02-24T05:50:56.303Z,-2.71
2019-02-24T05:53:24.765Z,-2.63
2019-02-24T05:55:53.198Z,-2.61
2019-02-24T05:58:21.663Z,-2.83
2019-02-24T06:00:50.079Z,-3.16
2019-02-24T06:03:18.556Z,-3.29
2019-02-24T06:05:47.000Z,-3.41
2019-02-24T06:08:15.444Z,-3.44
2019-02-24T06:10:43.920Z,-3.44
2019-02-24T06:13:12.349Z,-3.43
2019-02-24T06:15:40.815Z,-3.45
2019-02-24T06:18:09.235Z,-3.57
2019-02-24T06:20:38.064Z,-3.66
2019-02-24T06:23:06.718Z,-3.72
2019-02-24T06:25:35.175Z,-3.74
2019-02-24T06:28:03.611Z,-3.69
2019-02-24T06:30:32.078Z,-3.65
2019-02-24T06:33:00.503Z,-3.65
2019-02-24T06:35:28.992Z,-3.65
2019-02-24T06:37:57.429Z,-3.68
2019-02-24T06:40:25.880Z,-3.75
2019-02-24T06:42:54.331Z,-3.72
2019-02-24T06:45:22.790Z,-3.64
2019-02-24T06:47:51.226Z,-3.49
2019-02-24T06:50:19.693Z,-3.37
2019-02-24T06:52:48.132Z,-3.23
2019-02-24T06:55:16.596Z,-3.08
2019-02-24T06:57:45.025Z,-2.92
2019-02-24T07:00:14.376Z,-2.76
2019-02-24T07:02:42.900Z,-2.63
2019-02-24T07:05:11.363Z,-2.62
2019-02-24T07:07:39.791Z,-2.50
2019-02-24T07:10:08.327Z,-2.30
2019-02-24T07:12:36.757Z,-2.12
2019-02-24T07:15:07.923Z,-1.89
2019-02-24T07:17:36.409Z,-1.69
2019-02-24T07:20:06.472Z,-1.58
2019-02-24T07:22:34.939Z,-1.50
2019-02-24T07:25:03.640Z,-1.43
2019-02-24T07:27:32.094Z,-1.36
2019-02-24T07:30:00.523Z,-1.18
2019-02-24T07:32:28.979Z,-1.02
2019-02-24T07:34:57.410Z,-0.82
2019-02-24T07:37:25.857Z,-0.65
2019-02-24T07:39:54.288Z,-0.51
2019-02-24T07:42:22.738Z,-0.45
2019-02-24T07:44:51.171Z,-0.36
2019-02-24T07:47:19.630Z,-0.26
2019-02-24T07:49:48.057Z,-0.11
2019-02-24T07:52:16.510Z,0.02
2019-02-24T07:54:44.934Z,0.10
2019-02-24T07:57:13.389Z,0.14
2019-02-24T07:59:41.816Z,0.15
2019-02-24T08:02:10.265Z,0.24
2019-02-24T08:04:38.687Z,0.33
2019-02-24T08:07:07.143Z,0.46
2019-02-24T08:09:35.574Z,0.60
2019-02-24T08:12:04.086Z,0.79
2019-02-24T08:14:32.515Z,0.95
2019-02-24T08:17:00.964Z,1.09
2019-02-24T08:19:30.105Z,1.20
2019-02-24T08:21:58.618Z,1.37
2019-02-24T08:24:29.070Z,1.51
2019-02-24T08:26:57.223Z,1.59
2019-02-24T08:29:25.884Z,1.63
2019-02-24T08:31:54.337Z,1.59
2019-02-24T08:34:22.757Z,1.71
2019-02-24T08:36:51.211Z,1.81
2019-02-24T08:39:19.635Z,2.00
2019-02-24T08:41:48.091Z,2.20
2019-02-24T08:44:16.510Z,2.33
2019-02-24T08:46:44.959Z,2.43
2019-02-24T08:49:13.387Z,2.50
2019-02-24T08:51:41.874Z,2.63
2019-02-24T08:54:10.269Z,2.74
2019-02-24T08:56:38.704Z,2.88
2019-02-24T08:59:07.167Z,2.98
2019-02-24T09:01:35.577Z,3.07
2019-02-24T09:04:04.030Z,3.25
2019-02-24T09:06:32.451Z,3.35
2019-02-24T09:09:00.919Z,3.45
2019-02-24T09:11:29.340Z,3.58
2019-02-24T09:13:57.794Z,3.65
2019-02-24T09:16:26.218Z,3.71
2019-02-24T09:18:54.674Z,3.81
2019-02-24T09:21:23.094Z,3.84
2019-02-24T09:23:51.549Z,3.91
2019-02-24T09:26:20.044Z,4.00
2019-02-24T09:28:48.504Z,4.09
2019-02-24T09:31:16.925Z,4.26
2019-02-24T09:33:45.439Z,4.53
2019-02-24T09:36:13.862Z,4.63
2019-02-24T09:38:42.329Z,4.89
2019-02-24T09:41:10.743Z,4.89
2019-02-24T09:43:39.274Z,5.04
2019-02-24T09:46:07.701Z,5.13
2019-02-24T09:48:36.153Z,5.15
2019-02-24T09:51:04.580Z,5.22
2019-02-24T09:53:33.039Z,5.45
2019-02-24T09:56:01.452Z,5.45
2019-02-24T09:58:29.904Z,5.56
2019-02-24T10:00:58.324Z,5.70
2019-02-24T10:03:26.771Z,5.70
2019-02-24T10:05:55.196Z,5.86
2019-02-24T10:08:23.649Z,6.06
2019-02-24T10:10:52.071Z,6.06
2019-02-24T10:13:20.557Z,6.15
2019-02-24T10:15:48.978Z,6.31
2019-02-24T10:18:17.409Z,6.49
2019-02-24T10:20:45.861Z,6.61
2019-02-24T10:23:14.283Z,6.61
2019-02-24T10:25:42.734Z,6.88
2019-02-24T10:28:11.157Z,6.88
2019-02-24T10:30:39.603Z,7.09
2019-02-24T10:33:08.107Z,7.26
2019-02-24T10:35:36.627Z,7.40
2019-02-24T10:38:05.046Z,7.51
2019-02-24T10:40:33.567Z,7.58
2019-02-24T10:43:01.985Z,7.66
2019-02-24T10:45:30.437Z,7.78
2019-02-24T10:47:58.935Z,7.86
2019-02-24T10:50:27.383Z,7.93
2019-02-24T10:52:55.813Z,8.05
2019-02-24T10:55:24.274Z,8.14
2019-02-24T10:57:52.694Z,8.19
2019-02-24T11:00:22.860Z,8.26
2019-02-24T11:02:51.296Z,8.36
2019-02-24T11:05:19.820Z,8.51
2019-02-24T11:07:48.253Z,8.61
2019-02-24T11:10:16.707Z,8.68
2019-02-24T11:12:45.129Z,8.79
2019-02-24T11:15:14.152Z,8.98
2019-02-24T11:17:42.591Z,9.17
2019-02-24T11:20:13.849Z,9.39
2019-02-24T11:22:42.267Z,9.65
2019-02-24T11:25:11.690Z,9.79
2019-02-24T11:27:40.145Z,9.92
2019-02-24T11:30:13.156Z,10.03
2019-02-24T11:32:41.595Z,10.17
2019-02-24T11:35:11.257Z,10.29
2019-02-24T11:37:39.718Z,10.42
2019-02-24T11:40:10.683Z,10.46
2019-02-24T11:42:39.132Z,10.52
2019-02-24T11:45:08.998Z,10.57
2019-02-24T11:47:37.447Z,10.56
2019-02-24T11:50:08.605Z,10.55
2019-02-24T11:52:37.066Z,10.54
2019-02-24T11:55:06.631Z,10.54
2019-02-24T11:57:35.083Z,10.58
2019-02-24T12:00:03.646Z,10.48
2019-02-24T12:02:34.398Z,10.32
2019-02-24T12:05:02.242Z,10.43
2019-02-24T12:07:30.698Z,10.61
2019-02-24T12:09:59.297Z,10.80
2019-02-24T12:12:27.746Z,10.88
2019-02-24T12:14:56.176Z,10.92
2019-02-24T12:17:24.633Z,10.86
2019-02-24T12:19:53.061Z,10.92
2019-02-24T12:22:21.516Z,10.96
2019-02-24T12:24:49.935Z,11.01
2019-02-24T12:27:18.388Z,11.14
2019-02-24T12:29:46.809Z,11.20
2019-02-24T12:32:15.273Z,11.19
2019-02-24T12:34:43.691Z,11.04
2019-02-24T12:37:12.517Z,10.84
2019-02-24T12:39:47.147Z,10.68
2019-02-24T12:42:14.650Z,10.61
2019-02-24T12:44:43.072Z,10.53
2019-02-24T12:47:11.529Z,10.59
2019-02-24T12:49:39.951Z,10.59
2019-02-24T12:52:08.405Z,10.56
2019-02-24T12:54:36.829Z,10.45
2019-02-24T12:57:05.289Z,10.41
2019-02-24T12:59:33.881Z,10.34
2019-02-24T13:02:05.590Z,10.25
2019-02-24T13:04:32.492Z,10.25
2019-02-24T13:07:00.922Z,10.36
2019-02-24T13:09:29.378Z,10.55
2019-02-24T13:11:57.873Z,10.64
2019-02-24T13:14:26.386Z,10.68
2019-02-24T13:16:54.816Z,10.81
2019-02-24T13:19:23.268Z,10.98
2019-02-24T13:21:51.697Z,11.12
2019-02-24T13:24:20.147Z,11.24
2019-02-24T13:26:48.570Z,11.40
2019-02-24T13:29:17.025Z,11.52
2019-02-24T13:31:45.454Z,11.55
2019-02-24T13:34:13.916Z,11.53
2019-02-24T13:36:42.348Z,11.47
2019-02-24T13:39:10.797Z,11.51
2019-02-24T13:41:39.228Z,11.56
2019-02-24T13:44:07.683Z,11.57
2019-02-24T13:46:36.099Z,11.51
2019-02-24T13:49:04.549Z,11.54
2019-02-24T13:51:32.971Z,11.50
2019-02-24T13:54:01.418Z,11.47
2019-02-24T13:56:29.852Z,11.45
2019-02-24T13:58:58.311Z,11.48
2019-02-24T14:01:27.622Z,11.53
2019-02-24T14:03:56.075Z,11.56
2019-02-24T14:06:24.505Z,11.57
2019-02-24T14:08:52.959Z,11.54
2019-02-24T14:11:21.387Z,11.51
2019-02-24T14:13:49.806Z,11.51
2019-02-24T14:16:18.270Z,11.48
2019-02-24T14:18:46.691Z,11.47
2019-02-24T14:21:15.319Z,11.44
2019-02-24T14:23:43.744Z,11.41
2019-02-24T14:26:12.199Z,11.37
2019-02-24T14:28:40.629Z,11.34
2019-02-24T14:31:09.082Z,11.31
2019-02-24T14:33:37.581Z,11.33
2019-02-24T14:36:06.037Z,11.31
2019-02-24T14:38:34.457Z,11.30
2019-02-24T14:41:02.912Z,11.26
2019-02-24T14:43:31.344Z,11.27
2019-02-24T14:45:59.804Z,11.25
2019-02-24T14:48:28.225Z,11.22
2019-02-24T14:50:56.678Z,11.21
2019-02-24T14:53:25.101Z,11.23
2019-02-24T14:55:53.626Z,11.23
2019-02-24T14:58:22.067Z,11.22
2019-02-24T15:00:50.598Z,11.17
2019-02-24T15:03:19.030Z,11.13
2019-02-24T15:05:47.491Z,11.07
2019-02-24T15:08:15.923Z,11.05
2019-02-24T15:10:44.375Z,10.98
2019-02-24T15:13:12.797Z,10.95
2019-02-24T15:15:41.264Z,10.90
2019-02-24T15:18:09.698Z,10.83
2019-02-24T15:20:38.224Z,10.73
2019-02-24T15:23:06.918Z,10.67
2019-02-24T15:25:35.374Z,10.65
2019-02-24T15:28:03.872Z,10.59
2019-02-24T15:30:36.477Z,10.55
2019-02-24T15:33:04.970Z,10.53
2019-02-24T15:35:33.412Z,10.44
2019-02-24T15:38:01.842Z,10.35
2019-02-24T15:40:30.363Z,10.27
2019-02-24T15:42:58.788Z,10.18
2019-02-24T15:45:27.210Z,10.09
2019-02-24T15:47:55.663Z,10.01
2019-02-24T15:50:24.076Z,9.96
2019-02-24T15:52:52.521Z,9.89
2019-02-24T15:55:20.944Z,9.84
2019-02-24T15:57:49.390Z,9.86
2019-02-24T16:00:20.317Z,9.88
2019-02-24T16:02:48.754Z,9.82
2019-02-24T16:05:17.244Z,9.72
2019-02-24T16:07:45.688Z,9.61
2019-02-24T16:10:18.771Z,9.52
2019-02-24T16:12:47.215Z,9.39
2019-02-24T16:15:17.278Z,9.28
2019-02-24T16:17:45.721Z,9.12
2019-02-24T16:20:28.480Z,8.98
2019-02-24T16:22:56.923Z,8.86
2019-02-24T16:25:25.412Z,8.84
2019-02-24T16:27:55.206Z,8.85
2019-02-24T16:30:23.671Z,8.86
2019-02-24T16:32:52.122Z,8.73
2019-02-24T16:35:20.535Z,8.61
2019-02-24T16:37:48.992Z,8.43
2019-02-24T16:40:30.752Z,8.19
2019-02-24T16:42:59.191Z,7.81
2019-02-24T16:45:27.679Z,7.47
2019-02-24T16:47:56.124Z,7.35
2019-02-24T16:50:25.084Z,7.39
2019-02-24T16:52:53.795Z,7.42
2019-02-24T16:55:22.281Z,7.49
2019-02-24T16:57:50.723Z,7.41
2019-02-24T17:00:21.350Z,7.32
2019-02-24T17:02:49.860Z,7.20
2019-02-24T17:05:18.414Z,7.07
2019-02-24T17:07:46.860Z,6.92
2019-02-24T17:10:24.270Z,6.84
2019-02-24T17:12:52.719Z,6.66
2019-02-24T17:15:21.153Z,6.65
2019-02-24T17:17:49.597Z,6.44
2019-02-24T17:20:20.163Z,6.38
2019-02-24T17:22:48.585Z,6.45
2019-02-24T17:25:17.167Z,6.45
2019-02-24T17:27:45.867Z,6.47
2019-02-24T17:30:16.023Z,6.41
2019-02-24T17:32:44.583Z,6.32
2019-02-24T17:35:13.666Z,6.22
2019-02-24T17:37:42.163Z,6.01
2019-02-24T17:40:12.849Z,5.84
2019-02-24T17:42:41.357Z,5.71
2019-02-24T17:45:11.837Z,5.53
2019-02-24T17:47:40.262Z,5.44
2019-02-24T17:50:13.068Z,5.35
2019-02-24T17:52:41.560Z,5.29
2019-02-24T17:55:12.257Z,5.12
2019-02-24T17:57:40.683Z,5.12
2019-02-24T18:00:22.091Z,5.08
2019-02-24T18:02:50.579Z,4.83
2019-02-24T18:05:19.112Z,4.52
2019-02-24T18:07:47.542Z,4.45
2019-02-24T18:10:16.068Z,4.25
2019-02-24T18:12:44.486Z,4.24
2019-02-24T18:15:13.417Z,4.25
2019-02-24T18:17:41.965Z,4.18
2019-02-24T18:20:19.229Z,4.18
2019-02-24T18:22:47.778Z,4.04
2019-02-24T18:25:16.492Z,4.04
2019-02-24T18:27:44.894Z,3.95
2019-02-24T18:30:27.937Z,3.95
2019-02-24T18:32:56.365Z,3.92
2019-02-24T18:35:24.876Z,3.83
2019-02-24T18:37:53.305Z,3.76
2019-02-24T18:40:21.837Z,3.91
2019-02-24T18:42:59.403Z,3.91
2019-02-24T18:45:20.498Z,3.91
2019-02-24T18:47:49.791Z,3.67
2019-02-24T18:50:19.678Z,3.64
2019-02-24T18:52:48.100Z,3.64
2019-02-24T18:55:16.624Z,3.62
2019-02-24T18:57:45.043Z,3.45
2019-02-24T19:00:16.109Z,3.37
2019-02-24T19:02:44.529Z,3.22
2019-02-24T19:05:13.088Z,3.22
2019-02-24T19:07:41.678Z,3.13
2019-02-24T19:10:15.334Z,3.13
2019-02-24T19:12:43.862Z,3.00
2019-02-24T19:15:14.834Z,2.88
2019-02-24T19:17:43.294Z,2.79
2019-02-24T19:20:22.550Z,2.75
2019-02-24T19:22:51.079Z,2.69
2019-02-24T19:25:19.499Z,2.69
2019-02-24T19:27:48.031Z,2.63
2019-02-24T19:30:17.583Z,2.57
2019-02-24T19:32:46.106Z,2.59
2019-02-24T19:35:15.871Z,2.62
2019-02-24T19:37:44.389Z,2.65
2019-02-24T19:40:15.060Z,2.58
2019-02-24T19:42:43.508Z,2.53
2019-02-24T19:45:14.968Z,2.49
2019-02-24T19:47:43.493Z,2.42
2019-02-24T19:50:19.133Z,2.36
2019-02-24T19:52:47.588Z,2.34
2019-02-24T19:55:17.148Z,2.39
2019-02-24T19:57:45.682Z,2.43
2019-02-24T20:00:19.127Z,2.40
2019-02-24T20:02:47.713Z,2.39
2019-02-24T20:05:16.305Z,2.30
2019-02-24T20:07:44.756Z,2.16
2019-02-24T20:10:26.923Z,2.07
2019-02-24T20:12:55.383Z,2.00
2019-02-24T20:15:23.879Z,1.99
2019-02-24T20:17:52.390Z,1.91
2019-02-24T20:20:20.886Z,1.68
2019-02-24T20:22:49.327Z,1.64
2019-02-24T20:25:22.724Z,1.64
2019-02-24T20:27:51.181Z,1.67
2019-02-24T20:30:30.440Z,1.66
2019-02-24T20:32:58.887Z,1.71
2019-02-24T20:35:27.315Z,1.76
2019-02-24T20:37:55.829Z,1.76
2019-02-24T20:40:24.248Z,1.54
2019-02-24T20:42:52.699Z,1.31
2019-02-24T20:45:22.290Z,1.11
2019-02-24T20:47:50.788Z,1.19
2019-02-24T20:50:27.469Z,1.31
2019-02-24T20:52:55.935Z,1.28
2019-02-24T20:55:24.344Z,1.36
2019-02-24T20:57:52.787Z,1.34
2019-02-24T21:00:30.041Z,1.25
2019-02-24T21:02:58.492Z,1.08
2019-02-24T21:05:27.058Z,0.96
2019-02-24T21:07:55.511Z,0.84
2019-02-24T21:10:24.073Z,0.79
2019-02-24T21:12:52.519Z,0.87
2019-02-24T21:15:20.967Z,0.98
2019-02-24T21:17:49.481Z,1.02
2019-02-24T21:20:23.440Z,1.04
2019-02-24T21:22:51.959Z,1.10
2019-02-24T21:25:20.384Z,1.14
2019-02-24T21:27:48.839Z,1.12
2019-02-24T21:30:20.412Z,0.93
2019-02-24T21:32:48.860Z,0.57
2019-02-24T21:35:17.693Z,0.43
2019-02-24T21:37:46.145Z,0.49
2019-02-24T21:40:18.758Z,0.57
2019-02-24T21:42:47.243Z,0.66
2019-02-24T21:45:20.622Z,0.69
2019-02-24T21:47:49.039Z,0.65
2019-02-24T21:50:17.859Z,0.61
2019-02-24T21:52:46.363Z,0.56
2019-02-24T21:55:14.879Z,0.55
2019-02-24T21:57:43.306Z,0.43
2019-02-24T22:00:26.228Z,0.28
2019-02-24T22:02:54.815Z,0.14
2019-02-24T22:05:23.256Z,0.10
2019-02-24T22:07:51.687Z,0.35
2019-02-24T22:10:20.213Z,0.17
2019-02-24T22:12:48.704Z,0.11
2019-02-24T22:15:25.572Z,0.15
2019-02-24T22:17:54.064Z,0.17
2019-02-24T22:20:22.512Z,0.05
2019-02-24T22:22:50.999Z,-0.01
2019-02-24T22:25:19.521Z,-0.05
2019-02-24T22:27:48.014Z,-0.12
2019-02-24T22:30:18.214Z,-0.25
2019-02-24T22:32:46.630Z,-0.37
2019-02-24T22:35:15.156Z,-0.37
2019-02-24T22:37:43.583Z,-0.33
2019-02-24T22:40:13.275Z,-0.23
2019-02-24T22:42:41.763Z,-0.16
2019-02-24T22:45:13.239Z,-0.21
2019-02-24T22:47:41.935Z,-0.17
2019-02-24T22:50:10.857Z,-0.16
2019-02-24T22:52:39.369Z,-0.12
2019-02-24T22:55:10.729Z,-0.13
2019-02-24T22:57:39.146Z,-0.14
2019-02-24T23:00:19.781Z,-0.17
2019-02-24T23:02:48.208Z,-0.26
2019-02-24T23:05:16.800Z,-0.35
2019-02-24T23:07:45.230Z,-0.42
2019-02-24T23:10:13.707Z,-0.50
2019-02-24T23:12:42.208Z,-0.68
2019-02-24T23:15:10.699Z,-0.77
2019-02-24T23:17:39.153Z,-0.78
2019-02-24T23:20:08.917Z,-0.64
2019-02-24T23:22:37.372Z,-0.52
2019-02-24T23:25:06.069Z,-0.52
2019-02-24T23:27:34.609Z,-0.53
2019-02-24T23:30:03.039Z,-0.52
2019-02-24T23:32:31.509Z,-0.63
2019-02-24T23:34:59.934Z,-0.73
2019-02-24T23:37:28.398Z,-0.88
2019-02-24T23:39:56.817Z,-0.89
2019-02-24T23:42:25.343Z,-0.89
2019-02-24T23:44:53.768Z,-0.87
2019-02-24T23:47:22.282Z,-0.91
2019-02-24T23:49:50.721Z,-0.94
2019-02-24T23:52:19.173Z,-0.98
2019-02-24T23:54:47.598Z,-0.91
2019-02-24T23:57:16.050Z,-0.85
2019-02-24T23:59:44.488Z,-0.83
